createdAt,value
2019-04-07T00:02:19.980Z,43.90
2019-04-07T00:04:49.736Z,44.00
2019-04-07T00:07:19.632Z,44.20
2019-04-07T00:09:49.300Z,44.90
2019-04-07T00:12:20.262Z,44.40
2019-04-07T00:14:50.444Z,44.50
2019-04-07T00:17:20.652Z,44.50
2019-04-07T00:19:50.426Z,44.70
2019-04-07T00:22:20.061Z,44.90
2019-04-07T00:24:49.753Z,45.00
2019-04-07T00:27:21.420Z,45.00
2019-04-07T00:29:51.141Z,45.00
2019-04-07T00:32:21.146Z,45.10
2019-04-07T00:34:51.810Z,45.30
2019-04-07T00:37:21.878Z,45.30
2019-04-07T00:39:53.232Z,45.40
2019-04-07T00:42:29.210Z,45.50
2019-04-07T00:44:58.932Z,45.70
2019-04-07T00:47:29.677Z,45.70
2019-04-07T00:49:59.818Z,45.80
2019-04-07T00:52:29.567Z,46.00
2019-04-07T00:54:59.196Z,46.10
2019-04-07T00:57:28.858Z,46.10
2019-04-07T00:59:58.522Z,46.10
2019-04-07T01:02:28.572Z,46.30
2019-04-07T01:04:58.381Z,46.40
2019-04-07T01:07:28.515Z,46.30
2019-04-07T01:09:58.550Z,46.20
2019-04-07T01:12:30.255Z,46.20
2019-04-07T01:14:59.921Z,46.20
2019-04-07T01:17:30.245Z,46.10
2019-04-07T01:19:59.899Z,46.20
2019-04-07T01:22:29.791Z,46.10
2019-04-07T01:24:59.482Z,46.10
2019-04-07T01:27:29.085Z,46.10
2019-04-07T01:29:58.715Z,46.10
2019-04-07T01:32:29.004Z,46.10
2019-04-07T01:34:59.627Z,46.10
2019-04-07T01:37:30.709Z,46.20
2019-04-07T01:40:00.549Z,47.00
2019-04-07T01:43:01.062Z,47.00
2019-04-07T01:45:49.980Z,47.00
2019-04-07T01:48:37.018Z,47.00
2019-04-07T01:51:40.950Z,47.10
2019-04-07T01:54:35.376Z,47.30
2019-04-07T01:57:33.758Z,47.40
2019-04-07T02:00:25.776Z,47.70
2019-04-07T02:03:12.133Z,48.00
2019-04-07T02:06:07.719Z,48.30
2019-04-07T02:08:58.986Z,48.50
2019-04-07T02:11:46.274Z,48.70
2019-04-07T02:14:33.663Z,48.70
2019-04-07T02:17:25.214Z,48.80
2019-04-07T02:20:05.117Z,48.80
2019-04-07T02:22:48.664Z,49.00
2019-04-07T02:25:49.382Z,49.10
2019-04-07T02:28:50.400Z,49.20
2019-04-07T02:31:36.365Z,49.20
2019-04-07T02:34:27.900Z,49.20
2019-04-07T02:37:14.946Z,49.40
2019-04-07T02:40:06.321Z,49.60
2019-04-07T02:42:46.479Z,49.60
2019-04-07T02:45:24.791Z,49.50
2019-04-07T02:48:03.044Z,49.50
2019-04-07T02:51:09.663Z,49.40
2019-04-07T02:53:46.990Z,49.50
2019-04-07T02:56:34.150Z,49.50
2019-04-07T02:59:21.527Z,49.60
2019-04-07T03:02:02.991Z,49.90
2019-04-07T03:04:51.165Z,50.10
2019-04-07T03:07:33.069Z,50.30
2019-04-07T03:10:25.084Z,50.30
2019-04-07T03:13:16.831Z,50.30
2019-04-07T03:15:57.822Z,50.40
2019-04-07T03:18:52.825Z,50.50
2019-04-07T03:21:44.426Z,50.50
2019-04-07T03:24:36.830Z,50.50
2019-04-07T03:27:24.088Z,50.50
2019-04-07T03:30:09.337Z,50.50
2019-04-07T03:32:54.422Z,50.60
2019-04-07T03:35:48.524Z,50.60
2019-04-07T03:38:27.337Z,50.60
2019-04-07T03:41:29.133Z,50.60
2019-04-07T03:44:16.023Z,50.60
2019-04-07T03:46:59.928Z,50.70
2019-04-07T03:49:55.041Z,50.70
2019-04-07T03:52:52.782Z,50.90
2019-04-07T03:55:36.811Z,50.90
2019-04-07T03:58:28.403Z,51.00
2019-04-07T04:01:35.250Z,51.10
2019-04-07T04:04:22.356Z,51.20
2019-04-07T04:07:22.425Z,51.30
2019-04-07T04:09:50.430Z,51.40
2019-04-07T04:12:37.555Z,51.50
2019-04-07T04:15:20.447Z,51.70
2019-04-07T04:17:51.169Z,51.80
2019-04-07T04:20:21.568Z,52.00
2019-04-07T04:22:52.733Z,52.20
2019-04-07T04:25:23.155Z,52.40
2019-04-07T04:27:53.006Z,52.70
2019-04-07T04:30:22.686Z,52.90
2019-04-07T04:32:52.406Z,53.00
2019-04-07T04:35:22.431Z,53.00
2019-04-07T04:37:53.890Z,52.90
2019-04-07T04:40:24.268Z,52.90
2019-04-07T04:42:54.926Z,52.80
2019-04-07T04:45:24.694Z,52.60
2019-04-07T04:47:54.465Z,52.40
2019-04-07T04:50:25.717Z,52.40
2019-04-07T04:52:56.387Z,52.60
2019-04-07T04:55:26.186Z,52.70
2019-04-07T04:57:56.533Z,52.80
2019-04-07T05:00:26.649Z,53.60
2019-04-07T05:02:57.149Z,53.10
2019-04-07T05:05:28.009Z,53.10
2019-04-07T05:08:03.353Z,53.30
2019-04-07T05:10:29.064Z,53.40
2019-04-07T05:12:58.930Z,53.50
2019-04-07T05:15:28.778Z,53.40
2019-04-07T05:17:58.979Z,53.30
2019-04-07T05:20:28.743Z,53.20
2019-04-07T05:22:59.785Z,53.00
2019-04-07T05:25:29.615Z,52.80
2019-04-07T05:27:59.894Z,53.10
2019-04-07T05:30:29.817Z,52.40
2019-04-07T05:32:59.989Z,52.50
2019-04-07T05:35:29.888Z,52.50
2019-04-07T05:38:04.083Z,52.40
2019-04-07T05:40:31.974Z,52.40
2019-04-07T05:43:02.022Z,52.40
2019-04-07T05:45:31.755Z,52.30
2019-04-07T05:48:03.336Z,52.00
2019-04-07T05:50:33.456Z,51.80
2019-04-07T05:53:06.818Z,51.60
2019-04-07T05:55:37.205Z,51.40
2019-04-07T05:58:08.339Z,51.40
2019-04-07T06:00:39.173Z,51.40
2019-04-07T06:03:09.414Z,51.20
2019-04-07T06:05:40.025Z,51.10
2019-04-07T06:08:22.477Z,50.90
2019-04-07T06:10:41.229Z,50.90
2019-04-07T06:13:13.195Z,50.90
2019-04-07T06:15:42.355Z,50.90
2019-04-07T06:18:12.631Z,50.70
2019-04-07T06:20:44.202Z,50.50
2019-04-07T06:23:13.836Z,50.60
2019-04-07T06:25:44.040Z,50.50
2019-04-07T06:28:17.214Z,50.50
2019-04-07T06:30:46.240Z,50.30
2019-04-07T06:33:16.019Z,50.20
2019-04-07T06:35:47.365Z,50.10
2019-04-07T06:38:17.721Z,50.00
2019-04-07T06:40:50.809Z,50.00
2019-04-07T06:43:20.926Z,49.90
2019-04-07T06:46:09.656Z,49.80
2019-04-07T06:48:59.475Z,49.60
2019-04-07T06:51:42.684Z,49.50
2019-04-07T06:54:31.918Z,48.60
2019-04-07T06:57:19.442Z,48.50
2019-04-07T07:00:08.443Z,48.40
2019-04-07T07:02:47.854Z,48.10
2019-04-07T07:05:30.866Z,47.90
2019-04-07T07:08:10.136Z,47.90
2019-04-07T07:10:54.196Z,47.70
2019-04-07T07:13:44.688Z,47.40
2019-04-07T07:16:36.179Z,47.20
2019-04-07T07:19:31.534Z,47.00
2019-04-07T07:22:16.616Z,46.90
2019-04-07T07:24:47.420Z,46.50
2019-04-07T07:27:20.591Z,46.20
2019-04-07T07:29:52.819Z,45.60
2019-04-07T07:32:22.582Z,45.20
2019-04-07T07:34:54.250Z,45.00
2019-04-07T07:37:25.295Z,44.70
2019-04-07T07:39:55.459Z,44.50
2019-04-07T07:42:25.706Z,44.10
2019-04-07T07:44:56.018Z,44.00
2019-04-07T07:47:26.332Z,43.90
2019-04-07T07:49:56.153Z,43.70
2019-04-07T07:52:25.939Z,43.60
2019-04-07T07:54:59.897Z,43.60
2019-04-07T07:57:27.353Z,43.40
2019-04-07T07:59:57.378Z,43.30
2019-04-07T08:02:29.037Z,43.00
2019-04-07T08:04:59.262Z,42.80
2019-04-07T08:07:29.021Z,42.70
2019-04-07T08:09:59.570Z,42.50
2019-04-07T08:12:32.416Z,42.40
2019-04-07T08:15:01.681Z,42.20
2019-04-07T08:17:33.689Z,42.20
2019-04-07T08:20:03.345Z,42.00
2019-04-07T08:22:39.631Z,41.80
2019-04-07T08:25:05.305Z,41.70
2019-04-07T08:27:35.509Z,41.50
2019-04-07T08:30:10.165Z,41.20
2019-04-07T08:32:38.792Z,41.20
2019-04-07T08:35:08.738Z,41.10
2019-04-07T08:37:39.332Z,41.00
2019-04-07T08:40:17.437Z,41.00
2019-04-07T08:42:49.108Z,40.60
2019-04-07T08:45:19.664Z,40.30
2019-04-07T08:47:50.907Z,40.20
2019-04-07T08:50:22.477Z,40.10
2019-04-07T08:52:53.183Z,39.70
2019-04-07T08:55:23.679Z,39.40
2019-04-07T08:57:53.464Z,38.90
2019-04-07T09:00:26.093Z,38.60
2019-04-07T09:03:03.051Z,38.30
2019-04-07T09:05:31.144Z,38.10
2019-04-07T09:08:05.881Z,37.80
2019-04-07T09:10:48.759Z,37.60
2019-04-07T09:13:17.457Z,37.50
2019-04-07T09:16:06.116Z,37.30
2019-04-07T09:19:00.606Z,37.10
2019-04-07T09:21:38.738Z,36.90
2019-04-07T09:24:20.231Z,36.70
2019-04-07T09:26:59.279Z,36.50
2019-04-07T09:29:37.638Z,36.30
2019-04-07T09:32:14.603Z,36.00
2019-04-07T09:35:12.273Z,35.80
2019-04-07T09:38:03.911Z,35.60
2019-04-07T09:40:48.461Z,35.50
2019-04-07T09:43:35.828Z,35.40
2019-04-07T09:46:24.308Z,35.10
2019-04-07T09:49:00.146Z,34.90
2019-04-07T09:51:44.937Z,34.70
2019-04-07T09:54:38.905Z,34.40
2019-04-07T09:57:23.561Z,34.50
2019-04-07T10:00:06.739Z,34.40
2019-04-07T10:02:53.039Z,34.40
2019-04-07T10:05:35.978Z,34.60
2019-04-07T10:08:23.735Z,34.70
2019-04-07T10:11:16.008Z,34.90
2019-04-07T10:14:06.358Z,35.00
2019-04-07T10:16:57.797Z,35.00
2019-04-07T10:19:47.543Z,35.00
2019-04-07T10:22:42.953Z,35.20
2019-04-07T10:25:31.376Z,35.10
2019-04-07T10:28:32.326Z,35.20
2019-04-07T10:31:33.706Z,35.30
2019-04-07T10:34:16.665Z,35.40
2019-04-07T10:37:13.387Z,35.30
2019-04-07T10:40:16.358Z,35.40
2019-04-07T10:42:56.423Z,35.40
2019-04-07T10:45:32.930Z,35.30
2019-04-07T10:48:11.026Z,35.50
2019-04-07T10:51:06.777Z,35.50
2019-04-07T10:54:04.933Z,35.40
2019-04-07T10:56:54.167Z,35.40
2019-04-07T10:59:35.043Z,35.30
2019-04-07T11:02:22.654Z,35.30
2019-04-07T11:05:05.156Z,35.40
2019-04-07T11:07:54.785Z,35.20
2019-04-07T11:10:39.050Z,35.20
2019-04-07T11:13:22.003Z,35.30
2019-04-07T11:16:06.308Z,35.30
2019-04-07T11:18:55.058Z,35.00
2019-04-07T11:21:42.309Z,34.80
2019-04-07T11:24:43.385Z,34.90
2019-04-07T11:27:32.938Z,35.00
2019-04-07T11:30:18.116Z,35.20
2019-04-07T11:33:02.769Z,35.00
2019-04-07T11:35:55.340Z,35.30
2019-04-07T11:38:43.013Z,36.10
2019-04-07T11:41:37.771Z,36.10
2019-04-07T11:44:25.990Z,35.60
2019-04-07T11:47:24.130Z,35.40
2019-04-07T11:49:59.185Z,34.90
2019-04-07T11:52:53.651Z,35.20
2019-04-07T11:55:45.439Z,34.90
2019-04-07T11:58:31.239Z,34.40
2019-04-07T12:01:18.831Z,34.30
2019-04-07T12:04:02.474Z,34.60
2019-04-07T12:06:49.904Z,34.60
2019-04-07T12:09:44.203Z,34.20
2019-04-07T12:12:31.127Z,34.10
2019-04-07T12:15:14.151Z,34.20
2019-04-07T12:18:19.259Z,34.20
2019-04-07T12:21:03.448Z,33.90
2019-04-07T12:23:56.640Z,32.80
2019-04-07T12:26:54.899Z,32.20
2019-04-07T12:29:42.807Z,31.90
2019-04-07T12:32:25.959Z,32.50
2019-04-07T12:35:20.452Z,32.70
2019-04-07T12:38:12.304Z,32.40
2019-04-07T12:41:12.493Z,32.00
2019-04-07T12:44:08.003Z,31.50
2019-04-07T12:47:09.178Z,32.00
2019-04-07T12:49:56.138Z,32.00
2019-04-07T12:52:38.034Z,32.30
2019-04-07T12:55:33.287Z,31.70
2019-04-07T12:58:13.004Z,31.10
2019-04-07T13:01:12.123Z,31.20
2019-04-07T13:03:50.003Z,30.50
2019-04-07T13:06:44.937Z,30.70
2019-04-07T13:09:36.545Z,31.00
2019-04-07T13:12:25.935Z,31.00
2019-04-07T13:15:19.425Z,30.80
2019-04-07T13:18:07.331Z,30.20
2019-04-07T13:20:50.898Z,29.80
2019-04-07T13:23:43.832Z,29.10
2019-04-07T13:26:50.724Z,29.50
2019-04-07T13:29:42.077Z,29.60
2019-04-07T13:32:23.847Z,29.10
2019-04-07T13:35:22.634Z,28.40
2019-04-07T13:38:09.804Z,27.60
2019-04-07T13:41:03.020Z,26.90
2019-04-07T13:43:50.629Z,26.10
2019-04-07T13:46:42.346Z,25.30
2019-04-07T13:49:32.237Z,24.40
2019-04-07T13:52:31.182Z,23.50
2019-04-07T13:55:18.407Z,23.00
2019-04-07T13:58:12.945Z,22.00
2019-04-07T14:00:55.793Z,21.50
2019-04-07T14:03:43.616Z,21.40
2019-04-07T14:06:19.405Z,21.00
2019-04-07T14:09:16.981Z,20.50
2019-04-07T14:12:05.541Z,20.00
2019-04-07T14:14:47.153Z,19.60
2019-04-07T14:17:36.295Z,19.20
2019-04-07T14:20:24.651Z,18.90
2019-04-07T14:23:12.108Z,18.50
2019-04-07T14:26:06.681Z,18.20
2019-04-07T14:28:58.818Z,18.00
2019-04-07T14:31:39.063Z,17.90
2019-04-07T14:34:27.678Z,17.70
2019-04-07T14:37:28.861Z,17.60
2019-04-07T14:40:31.289Z,17.60
2019-04-07T14:43:25.968Z,17.50
2019-04-07T14:46:17.370Z,17.90
2019-04-07T14:49:13.477Z,18.00
2019-04-07T14:52:03.792Z,17.80
2019-04-07T14:54:56.995Z,17.80
2019-04-07T14:57:42.682Z,17.80
2019-04-07T15:00:30.210Z,17.70
2019-04-07T15:03:02.030Z,17.90
2019-04-07T15:05:34.215Z,17.60
2019-04-07T15:08:16.906Z,17.70
2019-04-07T15:10:50.180Z,17.80
2019-04-07T15:13:25.858Z,17.80
2019-04-07T15:15:56.085Z,17.80
2019-04-07T15:18:30.610Z,18.10
2019-04-07T15:21:00.547Z,18.20
2019-04-07T15:23:32.257Z,18.10
2019-04-07T15:26:02.186Z,18.10
2019-04-07T15:28:33.098Z,18.20
2019-04-07T15:31:04.259Z,18.30
2019-04-07T15:33:35.179Z,18.20
2019-04-07T15:36:09.139Z,18.10
2019-04-07T15:38:41.414Z,18.10
2019-04-07T15:41:15.743Z,18.30
2019-04-07T15:43:44.132Z,18.60
2019-04-07T15:46:16.747Z,19.30
2019-04-07T15:48:45.473Z,18.90
2019-04-07T15:51:18.220Z,19.30
2019-04-07T15:53:51.502Z,19.80
2019-04-07T15:56:20.882Z,20.30
2019-04-07T15:58:51.531Z,20.70
2019-04-07T16:01:25.005Z,21.30
2019-04-07T16:03:55.033Z,21.90
2019-04-07T16:06:25.967Z,22.20
2019-04-07T16:08:59.605Z,22.90
2019-04-07T16:11:30.339Z,22.70
2019-04-07T16:13:59.943Z,23.20
2019-04-07T16:16:30.683Z,23.60
2019-04-07T16:19:01.649Z,23.80
2019-04-07T16:21:31.377Z,24.10
2019-04-07T16:24:02.919Z,24.30
2019-04-07T16:26:35.900Z,24.40
2019-04-07T16:29:05.049Z,24.70
2019-04-07T16:31:36.861Z,25.00
2019-04-07T16:34:08.626Z,25.20
2019-04-07T16:36:38.047Z,25.40
2019-04-07T16:39:09.625Z,25.60
2019-04-07T16:41:44.178Z,25.80
2019-04-07T16:44:12.169Z,25.80
2019-04-07T16:46:44.366Z,25.90
2019-04-07T16:49:16.925Z,26.10
2019-04-07T16:51:45.715Z,26.80
2019-04-07T16:54:16.642Z,26.50
2019-04-07T16:56:50.800Z,26.70
2019-04-07T16:59:19.269Z,26.90
2019-04-07T17:01:49.767Z,27.10
2019-04-07T17:04:20.131Z,27.20
2019-04-07T17:06:59.500Z,27.30
2019-04-07T17:09:24.748Z,27.30
2019-04-07T17:11:53.594Z,27.40
2019-04-07T17:14:26.835Z,27.50
2019-04-07T17:16:56.884Z,27.40
2019-04-07T17:19:27.590Z,27.40
2019-04-07T17:22:00.298Z,27.50
2019-04-07T17:24:30.558Z,27.60
2019-04-07T17:27:03.302Z,27.60
2019-04-07T17:29:33.145Z,27.60
2019-04-07T17:32:03.822Z,27.60
2019-04-07T17:34:33.659Z,27.50
2019-04-07T17:37:07.126Z,27.60
2019-04-07T17:39:48.253Z,27.70
2019-04-07T17:42:20.131Z,27.70
2019-04-07T17:45:07.760Z,27.70
2019-04-07T17:47:57.235Z,27.80
2019-04-07T17:50:37.194Z,27.80
2019-04-07T17:53:26.508Z,27.90
2019-04-07T17:56:20.139Z,27.90
2019-04-07T17:59:12.160Z,28.00
2019-04-07T18:02:07.460Z,28.10
2019-04-07T18:04:50.073Z,28.10
2019-04-07T18:07:43.504Z,28.20
2019-04-07T18:10:30.703Z,28.40
2019-04-07T18:13:21.745Z,28.70
2019-04-07T18:15:59.811Z,28.80
2019-04-07T18:19:06.821Z,29.00
2019-04-07T18:22:13.786Z,29.10
2019-04-07T18:25:03.732Z,29.00
2019-04-07T18:27:55.680Z,29.00
2019-04-07T18:30:48.415Z,29.00
2019-04-07T18:33:37.924Z,29.10
2019-04-07T18:36:34.766Z,29.20
2019-04-07T18:39:39.770Z,29.20
2019-04-07T18:42:18.158Z,29.30
2019-04-07T18:45:05.247Z,29.40
2019-04-07T18:47:56.764Z,29.50
2019-04-07T18:50:37.007Z,29.50
2019-04-07T18:53:18.829Z,29.60
2019-04-07T18:56:11.548Z,29.80
2019-04-07T18:59:09.576Z,30.00
2019-04-07T19:02:01.467Z,30.00
2019-04-07T19:04:48.931Z,30.10
2019-04-07T19:07:25.601Z,30.30
2019-04-07T19:10:12.940Z,30.50
2019-04-07T19:13:06.455Z,30.70
2019-04-07T19:15:51.654Z,30.90
2019-04-07T19:18:55.193Z,31.10
2019-04-07T19:21:45.089Z,31.20
2019-04-07T19:24:23.895Z,31.20
2019-04-07T19:27:21.161Z,31.30
2019-04-07T19:30:20.858Z,31.40
2019-04-07T19:33:12.473Z,31.50
2019-04-07T19:35:59.395Z,31.60
2019-04-07T19:38:49.745Z,31.80
2019-04-07T19:41:47.483Z,32.20
2019-04-07T19:44:38.524Z,32.70
2019-04-07T19:47:12.060Z,33.10
2019-04-07T19:50:04.835Z,33.80
2019-04-07T19:52:43.570Z,34.90
2019-04-07T19:55:38.879Z,34.80
2019-04-07T19:58:19.762Z,35.30
2019-04-07T20:01:06.325Z,35.50
2019-04-07T20:03:54.526Z,35.40
2019-04-07T20:06:59.631Z,35.50
2019-04-07T20:09:51.367Z,35.60
2019-04-07T20:12:46.643Z,35.70
2019-04-07T20:15:39.049Z,35.80
2019-04-07T20:18:44.700Z,36.00
2019-04-07T20:21:38.050Z,36.00
2019-04-07T20:24:19.991Z,36.20
2019-04-07T20:27:06.467Z,36.50
2019-04-07T20:29:43.783Z,36.70
2019-04-07T20:32:36.146Z,36.80
2019-04-07T20:35:31.798Z,37.00
2019-04-07T20:38:09.185Z,37.20
2019-04-07T20:41:04.101Z,37.20
2019-04-07T20:43:46.437Z,37.30
2019-04-07T20:46:57.030Z,37.50
2019-04-07T20:49:48.197Z,37.50
2019-04-07T20:52:46.084Z,37.60
2019-04-07T20:55:39.685Z,37.80
2019-04-07T20:58:31.189Z,37.80
2019-04-07T21:01:22.335Z,37.90
2019-04-07T21:04:10.633Z,38.00
2019-04-07T21:06:48.491Z,37.90
2019-04-07T21:09:46.763Z,38.10
2019-04-07T21:12:35.288Z,38.10
2019-04-07T21:15:43.194Z,38.10
2019-04-07T21:18:34.899Z,38.10
2019-04-07T21:21:22.056Z,38.00
2019-04-07T21:24:18.995Z,37.90
2019-04-07T21:27:07.770Z,38.00
2019-04-07T21:30:02.452Z,38.00
2019-04-07T21:32:50.787Z,38.10
2019-04-07T21:35:43.539Z,38.00
2019-04-07T21:38:39.051Z,38.00
2019-04-07T21:41:18.782Z,38.10
2019-04-07T21:44:27.042Z,38.20
2019-04-07T21:47:14.000Z,38.40
2019-04-07T21:50:05.392Z,38.40
2019-04-07T21:52:39.262Z,38.50
2019-04-07T21:55:26.607Z,38.50
2019-04-07T21:58:30.081Z,38.70
2019-04-07T22:01:16.726Z,38.80
2019-04-07T22:03:52.427Z,38.80
2019-04-07T22:06:40.034Z,38.90
2019-04-07T22:09:20.547Z,39.10
2019-04-07T22:11:50.207Z,39.20
2019-04-07T22:14:20.796Z,39.40
2019-04-07T22:16:51.253Z,39.60
2019-04-07T22:19:21.052Z,39.80
2019-04-07T22:21:54.481Z,39.90
2019-04-07T22:24:22.216Z,40.10
2019-04-07T22:26:51.842Z,40.10
2019-04-07T22:29:22.448Z,40.30
2019-04-07T22:31:55.508Z,40.40
2019-04-07T22:34:25.266Z,40.60
2019-04-07T22:36:56.404Z,40.70
2019-04-07T22:39:29.786Z,40.80
2019-04-07T22:42:00.094Z,41.00
2019-04-07T22:44:29.872Z,41.10
2019-04-07T22:46:59.557Z,41.20
2019-04-07T22:49:31.930Z,41.20
2019-04-07T22:52:01.278Z,41.30
2019-04-07T22:54:31.408Z,41.30
2019-04-07T22:57:01.132Z,41.40
2019-04-07T22:59:30.876Z,42.10
2019-04-07T23:02:00.568Z,42.10
2019-04-07T23:04:30.209Z,41.50
2019-04-07T23:07:00.745Z,41.60
2019-04-07T23:09:31.361Z,41.70
2019-04-07T23:12:02.207Z,41.70
2019-04-07T23:14:32.430Z,41.90
2019-04-07T23:17:02.125Z,42.00
2019-04-07T23:19:32.236Z,42.10
2019-04-07T23:22:01.937Z,42.10
2019-04-07T23:24:31.937Z,42.20
2019-04-07T23:27:01.953Z,42.30
2019-04-07T23:29:32.442Z,42.40
2019-04-07T23:32:02.067Z,42.50
2019-04-07T23:34:31.695Z,42.50
2019-04-07T23:37:01.798Z,42.50
2019-04-07T23:39:31.525Z,42.50
2019-04-07T23:42:01.473Z,42.40
2019-04-07T23:44:31.761Z,42.30
2019-04-07T23:47:01.375Z,42.30
2019-04-07T23:49:31.206Z,43.20
2019-04-07T23:52:00.904Z,43.30
2019-04-07T23:54:31.016Z,43.30
2019-04-07T23:57:00.994Z,43.30
2019-04-07T23:59:30.603Z,43.30
